Time;durP1;ratioP1;P1;durP2;ratioP2;P2;SDS_P1;SDS_P2;PMS_P1;PMS_P2;Temp;Humidity;BMP_temperature;BMP_pressure;BME280_temperature;BME280_humidity;BME280_pressure;Samples;Min_cycle;Max_cycle;Signal;HPM_P1;HPM_P2
2023/08/18 00:00:07;;;;;;;3.40;3.10;;;;;;;21.65;68.26;93640.50;513788;28;795;-46
2023/08/18 00:00:24;;;;;;;3.08;2.80;;;;;;;21.65;68.20;93632.06;513872;28;791;-46
2023/08/18 00:00:39;;;;;;;2.88;2.67;;;;;;;21.58;68.18;93624.66;513770;28;892;-46
2023/08/18 00:00:55;;;;;;;2.90;2.70;;;;;;;21.65;68.11;93634.88;513764;28;868;-45
2023/08/18 00:01:10;;;;;;;3.73;2.83;;;;;;;21.66;68.08;93639.13;513687;28;769;-46
2023/08/18 00:01:26;;;;;;;3.80;3.10;;;;;;;21.65;68.15;93629.25;513736;28;857;-47
2023/08/18 00:01:41;;;;;;;3.50;3.17;;;;;;;21.66;68.00;93635.59;513697;28;1112;-46
2023/08/18 00:01:56;;;;;;;3.57;3.27;;;;;;;21.66;68.00;93635.59;513723;28;1133;-45
2023/08/18 00:02:15;;;;;;;3.50;3.20;;;;;;;21.65;68.18;93637.69;513719;28;991;-44
2023/08/18 00:02:31;;;;;;;3.10;2.80;;;;;;;21.63;68.10;93634.03;513740;28;1165;-46
2023/08/18 00:02:46;;;;;;;3.57;2.87;;;;;;;21.63;68.07;93629.16;513823;28;845;-46
2023/08/18 00:03:01;;;;;;;3.30;2.77;;;;;;;21.65;68.07;93634.16;514009;28;1112;-46
2023/08/18 00:03:17;;;;;;;3.13;2.73;;;;;;;21.58;68.10;93626.72;514063;28;921;-45
2023/08/18 00:03:32;;;;;;;3.53;3.22;;;;;;;21.64;68.19;93638.28;514084;28;817;-47
2023/08/18 00:03:47;;;;;;;3.57;3.27;;;;;;;21.63;68.09;93634.78;514028;28;852;-45
2023/08/18 00:04:03;;;;;;;3.60;2.87;;;;;;;21.64;68.19;93635.47;514164;28;965;-46
2023/08/18 00:04:18;;;;;;;4.05;2.83;;;;;;;21.63;68.10;93634.78;514126;28;862;-45
2023/08/18 00:04:34;;;;;;;4.73;2.93;;;;;;;21.64;68.14;93638.28;514160;28;923;-45
2023/08/18 00:04:49;;;;;;;5.53;3.10;;;;;;;21.65;68.14;93640.50;514040;28;841;-46
2023/08/18 00:05:06;;;;;;;4.67;3.00;;;;;;;21.64;68.20;93639.03;514116;28;922;-46
2023/08/18 00:05:21;;;;;;;3.10;2.80;;;;;;;21.57;68.06;93620.34;514141;28;830;-46
2023/08/18 00:05:37;;;;;;;3.03;2.80;;;;;;;21.64;68.08;93635.47;514115;28;797;-46
2023/08/18 00:05:52;;;;;;;2.87;2.67;;;;;;;21.63;67.78;93634.78;514050;28;950;-45
2023/08/18 00:06:07;;;;;;;3.22;2.70;;;;;;;21.57;67.99;93623.16;514115;28;862;-46
2023/08/18 00:06:23;;;;;;;4.17;3.00;;;;;;;21.57;67.93;93628.78;513664;28;1750;-47
2023/08/18 00:06:38;;;;;;;4.03;3.17;;;;;;;21.63;67.89;93628.41;514061;28;1234;-46
2023/08/18 00:06:54;;;;;;;3.28;3.00;;;;;;;21.62;67.95;93635.38;514176;28;836;-46
2023/08/18 00:07:10;;;;;;;3.30;3.00;;;;;;;21.62;68.06;93638.91;514064;28;1250;-46
2023/08/18 00:07:25;;;;;;;3.23;2.93;;;;;;;21.62;68.00;93632.56;514148;28;835;-46
2023/08/18 00:07:41;;;;;;;3.50;2.78;;;;;;;21.61;67.91;93637.44;514077;28;933;-46
2023/08/18 00:07:57;;;;;;;3.85;2.90;;;;;;;21.61;67.54;93640.25;514127;28;914;-46
2023/08/18 00:08:12;;;;;;;3.13;2.83;;;;;;;21.62;67.58;93635.38;514147;28;888;-45
2023/08/18 00:08:27;;;;;;;2.80;2.60;;;;;;;21.60;67.40;93630.38;514120;28;840;-47
2023/08/18 00:08:43;;;;;;;2.95;2.75;;;;;;;21.61;67.33;93636.72;514150;28;773;-46
2023/08/18 00:08:58;;;;;;;3.27;3.07;;;;;;;21.61;67.52;93631.13;514105;28;805;-45
2023/08/18 00:09:13;;;;;;;3.40;3.10;;;;;;;21.60;67.47;93632.44;514157;28;876;-44
2023/08/18 00:09:29;;;;;;;3.33;3.03;;;;;;;21.60;67.55;93626.84;514039;28;821;-46
2023/08/18 00:09:44;;;;;;;3.20;2.90;;;;;;;21.60;67.75;93633.19;514134;28;864;-46
2023/08/18 00:10:01;;;;;;;3.40;3.00;;;;;;;21.61;67.37;93636.72;514131;28;835;-45
2023/08/18 00:10:17;;;;;;;3.47;2.95;;;;;;;21.61;67.72;93633.94;514041;28;930;-47
2023/08/18 00:10:32;;;;;;;3.22;2.80;;;;;;;21.61;67.51;93633.94;514108;28;889;-46
2023/08/18 00:10:47;;;;;;;3.40;2.90;;;;;;;21.60;67.42;93629.63;514101;28;962;-45
2023/08/18 00:11:03;;;;;;;3.60;2.90;;;;;;;21.60;67.32;93632.44;514173;28;813;-45
2023/08/18 00:11:18;;;;;;;3.38;2.97;;;;;;;21.60;67.42;93635.25;514090;28;869;-46
2023/08/18 00:11:33;;;;;;;3.43;2.97;;;;;;;21.60;67.48;93632.44;514124;28;785;-46
2023/08/18 00:11:49;;;;;;;3.67;3.03;;;;;;;21.59;67.38;93633.81;514061;28;877;-46
2023/08/18 00:12:05;;;;;;;3.13;2.83;;;;;;;21.59;67.36;93633.81;514157;28;872;-46
2023/08/18 00:12:20;;;;;;;2.87;2.60;;;;;;;21.59;67.31;93637.34;514089;28;865;-46
2023/08/18 00:12:35;;;;;;;3.13;2.75;;;;;;;21.58;67.19;93630.25;514175;28;884;-47
2023/08/18 00:12:51;;;;;;;3.27;2.97;;;;;;;21.59;67.16;93636.63;514102;28;964;-45
2023/08/18 00:13:06;;;;;;;3.27;2.97;;;;;;;21.58;67.17;93633.06;514175;28;839;-46
2023/08/18 00:13:21;;;;;;;3.03;2.80;;;;;;;21.58;67.23;93637.97;514123;28;868;-45
2023/08/18 00:13:38;;;;;;;3.10;2.80;;;;;;;21.57;67.05;93634.41;514062;28;889;-47
2023/08/18 00:13:53;;;;;;;3.67;2.97;;;;;;;21.57;66.93;93634.41;514101;28;1166;-46
2023/08/18 00:14:08;;;;;;;3.40;3.10;;;;;;;21.57;67.03;93634.41;514126;28;817;-46
2023/08/18 00:14:23;;;;;;;3.40;3.10;;;;;;;21.57;66.96;93639.31;514094;28;904;-45
2023/08/18 00:14:39;;;;;;;3.13;2.90;;;;;;;21.56;67.14;93627.34;514153;28;824;-45
2023/08/18 00:14:55;;;;;;;2.97;2.73;;;;;;;21.56;66.99;93640.66;514090;28;816;-45
2023/08/18 00:15:10;;;;;;;3.15;2.85;;;;;;;21.55;66.89;93637.09;514148;28;1738;-45
2023/08/18 00:15:26;;;;;;;3.10;2.80;;;;;;;21.56;67.03;93638.59;514024;28;879;-47
2023/08/18 00:15:41;;;;;;;2.97;2.70;;;;;;;21.54;66.89;93632.84;514034;28;1982;-47
2023/08/18 00:15:56;;;;;;;3.20;2.90;;;;;;;21.54;66.99;93630.03;514030;28;809;-45
2023/08/18 00:16:12;;;;;;;3.10;2.80;;;;;;;21.54;67.08;93638.47;514112;28;1183;-45
2023/08/18 00:16:27;;;;;;;3.10;2.80;;;;;;;21.53;67.17;93633.44;514149;28;812;-45
2023/08/18 00:16:43;;;;;;;3.30;3.00;;;;;;;21.52;67.19;93640.44;514113;28;1670;-46
2023/08/18 00:16:58;;;;;;;3.90;3.30;;;;;;;21.52;67.11;93637.63;514149;28;830;-46
2023/08/18 00:17:13;;;;;;;3.50;3.20;;;;;;;21.51;67.13;93639.69;514199;28;844;-46
2023/08/18 00:17:29;;;;;;;3.20;2.90;;;;;;;21.52;67.10;93632.00;514038;28;807;-45
2023/08/18 00:17:44;;;;;;;3.22;2.92;;;;;;;21.51;67.15;93639.69;514194;28;891;-46
2023/08/18 00:17:59;;;;;;;3.30;3.00;;;;;;;21.50;67.17;93634.69;514165;28;833;-48
2023/08/18 00:18:15;;;;;;;2.97;2.77;;;;;;;21.50;67.20;93640.31;514177;28;836;-45
2023/08/18 00:18:30;;;;;;;2.93;2.73;;;;;;;21.47;67.25;93630.31;514130;28;769;-44
2023/08/18 00:18:46;;;;;;;3.30;3.00;;;;;;;21.49;67.09;93636.78;514158;28;868;-45
2023/08/18 00:19:01;;;;;;;3.20;2.90;;;;;;;21.49;67.02;93638.84;514136;28;806;-46
2023/08/18 00:19:16;;;;;;;3.38;3.08;;;;;;;21.48;67.05;93638.13;514127;28;828;-45
2023/08/18 00:19:32;;;;;;;3.33;3.03;;;;;;;21.48;67.02;93638.13;514062;28;781;-48
2023/08/18 00:19:47;;;;;;;3.20;2.90;;;;;;;21.47;67.06;93638.72;514089;28;813;-46
2023/08/18 00:20:03;;;;;;;3.08;2.78;;;;;;;21.46;67.20;93640.09;514150;28;907;-46
2023/08/18 00:20:18;;;;;;;3.00;2.70;;;;;;;21.46;67.30;93640.09;514115;28;852;-45
2023/08/18 00:20:34;;;;;;;2.97;2.67;;;;;;;21.45;67.20;93638.63;514118;28;834;-45
2023/08/18 00:20:50;;;;;;;2.80;2.60;;;;;;;21.43;67.32;93633.63;514017;28;875;-44
2023/08/18 00:21:05;;;;;;;3.00;2.70;;;;;;;21.42;67.43;93637.78;514057;28;884;-46
2023/08/18 00:21:20;;;;;;;3.20;2.90;;;;;;;21.41;67.61;93632.78;514108;28;856;-46
2023/08/18 00:21:36;;;;;;;3.17;2.87;;;;;;;21.41;67.44;93638.41;514082;28;832;-45
2023/08/18 00:21:51;;;;;;;3.20;2.90;;;;;;;21.40;67.64;93634.09;514110;28;957;-46
2023/08/18 00:22:07;;;;;;;3.30;3.00;;;;;;;21.39;67.53;93636.22;514155;28;815;-46
2023/08/18 00:22:22;;;;;;;4.05;3.00;;;;;;;21.38;67.53;93634.72;514108;28;865;-46
2023/08/18 00:22:39;;;;;;;3.67;2.80;;;;;;;21.37;67.70;93638.91;514076;28;904;-46
2023/08/18 00:22:54;;;;;;;3.00;2.80;;;;;;;21.37;67.61;93638.16;514171;28;871;-47
2023/08/18 00:23:09;;;;;;;4.50;2.80;;;;;;;21.37;67.74;93629.75;514065;28;812;-45
2023/08/18 00:23:25;;;;;;;4.30;2.67;;;;;;;21.36;67.80;93636.69;514013;28;907;-47
2023/08/18 00:23:41;;;;;;;2.88;2.65;;;;;;;21.35;67.76;93640.88;514052;28;1560;-46
2023/08/18 00:23:57;;;;;;;3.40;2.58;;;;;;;21.31;67.83;93629.41;514090;28;824;-45
2023/08/18 00:24:12;;;;;;;3.10;2.57;;;;;;;21.34;68.06;93633.78;514195;28;775;-45
2023/08/18 00:24:27;;;;;;;3.03;2.80;;;;;;;21.33;68.08;93621.78;514092;28;962;-47
2023/08/18 00:24:43;;;;;;;3.33;3.03;;;;;;;21.33;68.01;93635.84;514109;28;1077;-45
2023/08/18 00:24:58;;;;;;;3.63;2.83;;;;;;;21.32;68.04;93628.03;514051;28;976;-45
2023/08/18 00:25:13;;;;;;;3.45;2.78;;;;;;;21.31;68.08;93630.09;514194;28;852;-46
2023/08/18 00:25:29;;;;;;;3.17;2.90;;;;;;;21.31;68.10;93632.22;513994;28;902;-46
2023/08/18 00:25:44;;;;;;;3.60;3.30;;;;;;;21.30;67.96;93634.28;514183;28;795;-45
2023/08/18 00:26:00;;;;;;;3.70;3.30;;;;;;;21.30;68.08;93630.72;514081;28;883;-46
2023/08/18 00:26:15;;;;;;;3.30;3.00;;;;;;;21.27;68.13;93635.50;514124;28;796;-45
2023/08/18 00:26:30;;;;;;;3.37;3.07;;;;;;;21.29;68.19;93627.19;514140;28;789;-48
2023/08/18 00:26:46;;;;;;;3.33;3.00;;;;;;;21.29;68.29;93630.00;514059;28;1085;-46
2023/08/18 00:27:01;;;;;;;3.57;3.20;;;;;;;21.27;68.07;93629.19;514072;28;870;-47
2023/08/18 00:27:16;;;;;;;3.40;3.10;;;;;;;21.28;68.14;93630.63;514147;28;808;-46
2023/08/18 00:27:32;;;;;;;3.25;2.95;;;;;;;21.28;68.23;93633.44;514129;28;812;-46
2023/08/18 00:27:47;;;;;;;3.20;3.00;;;;;;;21.25;68.24;93629.75;514068;28;958;-47
2023/08/18 00:28:03;;;;;;;2.90;2.70;;;;;;;21.26;68.19;93627.69;514108;28;863;-45
2023/08/18 00:28:18;;;;;;;3.05;2.75;;;;;;;21.08;68.21;93607.72;514173;28;824;-46
2023/08/18 00:28:34;;;;;;;3.20;2.90;;;;;;;21.26;68.36;93633.31;514122;28;758;-46
2023/08/18 00:28:49;;;;;;;3.00;2.70;;;;;;;21.25;68.41;93624.16;514093;28;800;-45
2023/08/18 00:29:04;;;;;;;3.50;2.80;;;;;;;21.25;68.47;93640.25;514108;28;995;-45
2023/08/18 00:29:20;;;;;;;3.33;2.90;;;;;;;21.25;68.43;93634.66;514079;28;872;-45
2023/08/18 00:29:36;;;;;;;3.88;3.08;;;;;;;21.25;68.46;93631.84;514036;28;1016;-46
2023/08/18 00:29:51;;;;;;;3.63;3.10;;;;;;;21.25;68.41;93629.75;514069;28;935;-46
2023/08/18 00:30:07;;;;;;;4.17;3.13;;;;;;;21.24;68.50;93633.94;514008;28;853;-46
2023/08/18 00:30:24;;;;;;;5.80;3.70;;;;;;;21.25;68.63;93631.84;514190;28;794;-45
2023/08/18 00:30:39;;;;;;;4.07;3.47;;;;;;;21.25;68.83;93626.22;514056;28;837;-45
2023/08/18 00:30:55;;;;;;;3.30;3.00;;;;;;;21.25;68.75;93631.84;514043;28;867;-46
2023/08/18 00:31:10;;;;;;;4.23;3.20;;;;;;;21.26;68.78;93630.50;514058;28;856;-46
2023/08/18 00:31:25;;;;;;;4.00;3.15;;;;;;;21.24;68.89;93636.75;514056;28;789;-45
2023/08/18 00:31:41;;;;;;;3.00;2.70;;;;;;;21.24;68.88;93636.75;514110;28;748;-46
2023/08/18 00:31:58;;;;;;;3.13;2.83;;;;;;;21.25;68.91;93634.66;514096;28;817;-47
2023/08/18 00:32:14;;;;;;;3.15;2.95;;;;;;;21.25;68.87;93635.38;514151;28;890;-45
2023/08/18 00:32:29;;;;;;;3.17;2.87;;;;;;;21.25;68.65;93641.00;514087;28;853;-45
2023/08/18 00:32:44;;;;;;;3.20;2.90;;;;;;;21.24;68.82;93636.75;514086;28;875;-45
2023/08/18 00:33:00;;;;;;;3.50;3.20;;;;;;;21.21;68.77;93629.53;514048;28;930;-46
2023/08/18 00:33:15;;;;;;;3.83;3.47;;;;;;;21.24;68.88;93636.00;514142;28;832;-46
2023/08/18 00:33:31;;;;;;;3.60;3.30;;;;;;;21.23;68.90;93635.28;513949;28;829;-45
2023/08/18 00:33:46;;;;;;;3.10;2.90;;;;;;;21.24;68.86;93633.94;514145;28;827;-46
2023/08/18 00:34:02;;;;;;;2.90;2.70;;;;;;;21.22;68.92;93628.22;514098;28;781;-45
2023/08/18 00:34:17;;;;;;;4.50;3.08;;;;;;;21.23;68.83;93632.47;514191;28;839;-47
2023/08/18 00:34:32;;;;;;;5.07;3.13;;;;;;;21.22;68.72;93627.47;514145;28;915;-46
2023/08/18 00:34:48;;;;;;;4.10;3.22;;;;;;;21.24;68.79;93631.13;513998;28;934;-46
2023/08/18 00:35:04;;;;;;;3.50;3.20;;;;;;;21.24;68.78;93631.13;514087;28;946;-45
2023/08/18 00:35:19;;;;;;;3.30;3.00;;;;;;;21.24;68.83;93636.00;514077;28;801;-46
2023/08/18 00:35:34;;;;;;;3.00;2.70;;;;;;;21.23;68.65;93629.66;514032;28;768;-46
2023/08/18 00:35:50;;;;;;;3.17;2.87;;;;;;;21.24;68.57;93633.19;513976;28;1983;-46
2023/08/18 00:36:05;;;;;;;6.60;3.50;;;;;;;21.24;68.64;93628.31;514087;28;832;-45
2023/08/18 00:36:21;;;;;;;6.53;3.47;;;;;;;21.24;68.57;93633.19;514078;28;1685;-45
2023/08/18 00:36:36;;;;;;;3.30;3.00;;;;;;;21.24;68.75;93630.38;514082;28;797;-46
2023/08/18 00:36:52;;;;;;;3.13;2.90;;;;;;;21.23;68.64;93632.47;514119;28;828;-45
2023/08/18 00:37:07;;;;;;;3.43;3.13;;;;;;;21.23;68.65;93634.53;513967;28;920;-45
2023/08/18 00:37:22;;;;;;;3.78;3.20;;;;;;;21.21;68.66;93632.34;514108;28;840;-44
2023/08/18 00:37:39;;;;;;;3.43;3.03;;;;;;;21.22;68.66;93635.91;513934;28;939;-46
2023/08/18 00:37:55;;;;;;;3.40;3.10;;;;;;;21.23;68.64;93628.91;514125;28;816;-44
2023/08/18 00:38:10;;;;;;;3.30;3.00;;;;;;;21.23;68.61;93640.16;513813;28;904;-45
2023/08/18 00:38:25;;;;;;;3.20;2.90;;;;;;;21.22;68.58;93622.59;514005;28;789;-46
2023/08/18 00:38:41;;;;;;;3.30;3.00;;;;;;;21.22;68.56;93627.47;513909;28;828;-45
2023/08/18 00:38:58;;;;;;;3.63;3.00;;;;;;;21.22;68.33;93625.41;513972;28;799;-45
2023/08/18 00:39:13;;;;;;;4.68;3.00;;;;;;;21.21;68.57;93631.59;513862;28;896;-45
2023/08/18 00:39:28;;;;;;;3.70;3.20;;;;;;;21.21;68.58;93631.59;513799;28;869;-46
2023/08/18 00:39:44;;;;;;;3.40;3.10;;;;;;;21.22;68.50;93630.28;513921;28;940;-45
2023/08/18 00:39:59;;;;;;;3.23;2.93;;;;;;;21.21;68.55;93628.81;513883;28;868;-46
2023/08/18 00:40:15;;;;;;;3.10;2.80;;;;;;;21.21;68.59;93626.72;514099;28;803;-46
2023/08/18 00:40:30;;;;;;;3.15;2.85;;;;;;;21.20;68.49;93622.47;514065;28;789;-46
2023/08/18 00:40:45;;;;;;;3.13;2.83;;;;;;;21.20;68.46;93624.53;514095;28;765;-48
2023/08/18 00:41:01;;;;;;;3.00;2.80;;;;;;;21.20;68.61;93627.34;514118;28;863;-46
2023/08/18 00:41:16;;;;;;;3.35;3.05;;;;;;;21.18;68.47;93627.94;514071;28;885;-45
2023/08/18 00:41:31;;;;;;;3.20;2.90;;;;;;;21.18;68.39;93621.63;513949;28;1027;-45
2023/08/18 00:41:47;;;;;;;3.00;2.80;;;;;;;21.18;68.40;93627.25;514093;28;749;-46
2023/08/18 00:42:02;;;;;;;3.28;2.97;;;;;;;21.17;68.56;93622.97;514044;28;1135;-46
2023/08/18 00:42:18;;;;;;;3.40;3.10;;;;;;;21.18;68.44;93627.25;514027;28;1348;-47
2023/08/18 00:42:33;;;;;;;3.50;3.20;;;;;;;21.17;68.38;93622.97;514156;28;852;-46
2023/08/18 00:42:48;;;;;;;3.40;3.10;;;;;;;21.17;68.33;93623.69;514124;28;797;-46
2023/08/18 00:43:04;;;;;;;3.07;2.87;;;;;;;21.17;68.48;93622.97;514147;28;1098;-46
2023/08/18 00:43:21;;;;;;;3.22;2.95;;;;;;;21.16;68.31;93627.13;514155;28;818;-45
2023/08/18 00:43:37;;;;;;;3.50;3.20;;;;;;;21.15;68.36;93629.19;514035;28;887;-46
2023/08/18 00:43:52;;;;;;;3.50;3.20;;;;;;;21.14;68.50;93622.09;514062;28;943;-45
2023/08/18 00:44:08;;;;;;;3.33;3.03;;;;;;;21.13;68.47;93635.44;513885;28;2801;-48
2023/08/18 00:44:23;;;;;;;3.20;2.90;;;;;;;21.12;68.38;93627.59;514098;28;881;-46
2023/08/18 00:44:38;;;;;;;3.20;2.93;;;;;;;21.12;68.55;93630.41;513952;28;915;-46
2023/08/18 00:44:54;;;;;;;3.15;2.83;;;;;;;21.09;68.54;93632.38;514110;28;864;-46
2023/08/18 00:45:09;;;;;;;3.27;2.90;;;;;;;21.09;68.88;93632.38;514081;28;807;-45
2023/08/18 00:45:25;;;;;;;3.00;2.67;;;;;;;21.07;68.72;93635.06;514038;28;861;-45
2023/08/18 00:45:42;;;;;;;3.03;2.70;;;;;;;21.07;68.63;93635.06;514024;28;923;-45
2023/08/18 00:45:57;;;;;;;3.30;3.00;;;;;;;21.06;68.75;93628.00;515925;28;959;-45
2023/08/18 00:46:14;;;;;;;3.55;3.08;;;;;;;21.02;68.80;93627.75;515879;28;995;-46
2023/08/18 00:46:30;;;;;;;3.25;2.95;;;;;;;21.04;69.02;93632.75;515929;28;832;-45
2023/08/18 00:46:46;;;;;;;3.00;2.80;;;;;;;21.03;68.94;93639.72;515984;28;907;-45
2023/08/18 00:47:01;;;;;;;3.05;2.85;;;;;;;21.03;68.97;93637.63;515961;28;793;-45
2023/08/18 00:47:16;;;;;;;2.93;2.73;;;;;;;21.02;69.03;93630.53;515926;28;852;-47
2023/08/18 00:47:32;;;;;;;3.37;3.07;;;;;;;21.01;68.98;93631.88;515916;28;981;-47
2023/08/18 00:47:47;;;;;;;3.47;3.17;;;;;;;21.00;69.03;93624.81;515333;28;932;-46
2023/08/18 00:48:03;;;;;;;3.20;2.90;;;;;;;20.93;68.92;93619.44;511917;29;880;-45
2023/08/18 00:48:19;;;;;;;3.13;2.85;;;;;;;21.02;69.08;93629.81;511899;29;884;-46
2023/08/18 00:48:35;;;;;;;3.22;2.92;;;;;;;21.02;69.11;93632.63;511976;29;896;-46
2023/08/18 00:48:51;;;;;;;3.00;2.75;;;;;;;21.01;69.18;93631.13;511928;29;856;-46
2023/08/18 00:49:08;;;;;;;4.00;2.88;;;;;;;21.01;69.23;93633.94;511944;29;836;-46
2023/08/18 00:49:23;;;;;;;4.13;2.78;;;;;;;20.99;69.30;93631.03;511909;29;908;-46
2023/08/18 00:49:39;;;;;;;3.10;2.85;;;;;;;21.01;69.36;93631.88;511889;29;808;-45
2023/08/18 00:49:54;;;;;;;3.37;3.07;;;;;;;21.00;69.36;93635.31;512688;28;838;-47
2023/08/18 00:50:10;;;;;;;3.70;3.05;;;;;;;21.01;69.55;93633.94;513914;28;821;-47
2023/08/18 00:50:26;;;;;;;3.80;3.20;;;;;;;20.99;69.36;93628.97;513969;28;868;-44
2023/08/18 00:50:42;;;;;;;3.20;2.90;;;;;;;20.99;69.30;93625.41;511835;29;762;-48
2023/08/18 00:50:58;;;;;;;4.00;2.70;;;;;;;20.99;69.44;93625.41;509963;29;816;-47
2023/08/18 00:51:14;;;;;;;3.95;2.92;;;;;;;20.93;69.47;93617.38;509985;29;927;-45
2023/08/18 00:51:31;;;;;;;3.35;3.13;;;;;;;20.98;69.43;93626.78;508072;29;892;-45
2023/08/18 00:51:47;;;;;;;3.38;3.08;;;;;;;20.97;69.58;93628.84;508007;29;859;-45
2023/08/18 00:52:03;;;;;;;3.40;3.10;;;;;;;20.98;69.42;93626.78;508019;29;797;-46
2023/08/18 00:52:18;;;;;;;5.20;3.20;;;;;;;20.97;69.32;93626.03;507919;29;1407;-45
2023/08/18 00:52:34;;;;;;;5.15;3.00;;;;;;;20.98;69.45;93621.16;508813;29;916;-46
2023/08/18 00:52:56;;;;;;;3.17;2.87;;;;;;;20.98;69.47;93621.91;510653;29;837;-44
2023/08/18 00:53:12;;;;;;;3.10;2.80;;;;;;;20.98;69.26;93627.50;513538;28;900;-45
2023/08/18 00:53:29;;;;;;;3.55;3.05;;;;;;;21.00;69.32;93629.69;513441;28;980;-46
2023/08/18 00:53:44;;;;;;;3.42;3.10;;;;;;;21.01;69.32;93628.34;513913;28;845;-46
2023/08/18 00:54:01;;;;;;;3.23;2.93;;;;;;;20.97;69.43;93625.28;513942;28;841;-46
2023/08/18 00:54:17;;;;;;;3.42;3.08;;;;;;;21.00;69.47;93624.06;513878;28;1137;-46
2023/08/18 00:54:32;;;;;;;3.45;3.10;;;;;;;21.01;69.43;93628.34;511959;29;853;-45
2023/08/18 00:54:48;;;;;;;3.60;3.30;;;;;;;20.90;69.40;93612.97;511882;29;778;-46
2023/08/18 00:55:04;;;;;;;3.60;3.30;;;;;;;21.00;69.50;93632.50;509919;29;895;-45
2023/08/18 00:55:20;;;;;;;3.03;2.72;;;;;;;21.01;69.40;93631.13;510753;29;991;-46
2023/08/18 00:55:35;;;;;;;2.80;2.60;;;;;;;20.99;69.67;93634.56;511861;29;920;-46
2023/08/18 00:55:51;;;;;;;3.07;2.80;;;;;;;21.00;69.33;93626.88;511784;29;1918;-47
2023/08/18 00:56:08;;;;;;;3.38;3.00;;;;;;;21.00;69.32;93629.69;511904;29;1548;-46
2023/08/18 00:56:24;;;;;;;3.15;2.92;;;;;;;20.98;69.16;93624.69;510516;29;1012;-46
2023/08/18 00:56:40;;;;;;;3.10;2.80;;;;;;;20.98;69.18;93633.13;511821;29;893;-45
2023/08/18 00:56:55;;;;;;;3.03;2.70;;;;;;;20.98;69.18;93623.97;510696;29;881;-45
2023/08/18 00:57:11;;;;;;;3.40;3.10;;;;;;;20.98;69.09;93626.78;511839;29;894;-45
2023/08/18 00:57:26;;;;;;;3.53;3.23;;;;;;;20.89;69.02;93619.94;511901;29;868;-45
2023/08/18 00:57:43;;;;;;;3.35;3.05;;;;;;;20.96;69.08;93627.38;511931;29;948;-47
2023/08/18 00:58:00;;;;;;;3.33;3.00;;;;;;;20.95;69.07;93625.91;511832;29;873;-45
2023/08/18 00:58:15;;;;;;;3.13;2.92;;;;;;;20.97;68.94;93630.91;511914;29;880;-46
2023/08/18 00:58:31;;;;;;;3.15;2.95;;;;;;;20.96;68.94;93635.78;511835;29;940;-47
2023/08/18 00:58:46;;;;;;;3.27;2.97;;;;;;;20.97;68.76;93634.44;511900;29;849;-46
2023/08/18 00:59:02;;;;;;;3.50;2.87;;;;;;;20.96;68.56;93635.78;512466;28;923;-46
2023/08/18 00:59:19;;;;;;;3.25;2.72;;;;;;;20.96;68.52;93637.88;513864;28;817;-45
2023/08/18 00:59:34;;;;;;;3.17;2.90;;;;;;;20.95;68.55;93628.72;511936;29;875;-49
2023/08/18 00:59:50;;;;;;;3.20;2.90;;;;;;;20.93;68.51;93630.69;512660;28;1113;-46
2023/08/18 01:00:06;;;;;;;2.90;2.63;;;;;;;20.94;68.52;93634.97;513968;28;876;-46
2023/08/18 01:00:24;;;;;;;2.88;2.67;;;;;;;20.95;68.44;93636.41;513806;28;967;-46
2023/08/18 01:00:40;;;;;;;3.08;2.88;;;;;;;20.93;68.50;93633.47;513892;28;907;-46
2023/08/18 01:00:56;;;;;;;3.20;2.90;;;;;;;20.93;68.55;93630.69;513967;28;888;-45
2023/08/18 01:01:12;;;;;;;3.23;2.93;;;;;;;20.92;68.49;93634.84;511769;29;854;-45
2023/08/18 01:01:27;;;;;;;3.17;2.97;;;;;;;20.92;68.49;93632.03;512829;28;864;-45
2023/08/18 01:01:44;;;;;;;3.47;3.17;;;;;;;20.91;68.47;93634.09;511917;29;788;-45
2023/08/18 01:02:02;;;;;;;3.33;2.80;;;;;;;20.91;68.41;93630.56;509934;29;1081;-45
2023/08/18 01:02:18;;;;;;;3.33;3.03;;;;;;;20.92;68.54;93637.66;509892;29;892;-45
2023/08/18 01:02:33;;;;;;;3.43;3.13;;;;;;;20.89;68.49;93633.25;509941;29;1030;-47
2023/08/18 01:02:52;;;;;;;3.33;3.03;;;;;;;20.91;68.74;93636.91;509820;29;1524;-46
2023/08/18 01:03:07;;;;;;;3.40;3.05;;;;;;;20.85;68.82;93628.13;509928;29;814;-46
2023/08/18 01:03:23;;;;;;;3.83;3.03;;;;;;;20.91;68.85;93636.91;509925;29;891;-46
2023/08/18 01:03:39;;;;;;;3.50;2.83;;;;;;;20.90;68.70;93641.03;509160;29;992;-46
2023/08/18 01:03:55;;;;;;;2.88;2.58;;;;;;;20.89;68.63;93636.78;511136;29;1019;-46
2023/08/18 01:04:12;;;;;;;2.60;2.40;;;;;;;20.89;68.64;93639.59;509860;29;901;-48
2023/08/18 01:04:27;;;;;;;2.80;2.50;;;;;;;20.88;68.71;93635.31;509901;29;943;-44
2023/08/18 01:04:43;;;;;;;3.10;2.80;;;;;;;20.88;68.63;93635.31;509870;29;849;-45
2023/08/18 01:05:00;;;;;;;3.67;3.00;;;;;;;20.88;68.56;93637.38;509815;29;905;-45
2023/08/18 01:05:16;;;;;;;3.50;2.92;;;;;;;20.88;68.76;93626.16;509973;29;877;-46
2023/08/18 01:05:32;;;;;;;3.10;2.90;;;;;;;20.87;68.55;93636.69;510719;29;877;-45
2023/08/18 01:05:47;;;;;;;2.97;2.78;;;;;;;20.87;68.72;93635.94;511814;29;857;-46
2023/08/18 01:06:03;;;;;;;3.03;2.83;;;;;;;20.85;69.06;93633.75;512687;28;1644;-45
2023/08/18 01:06:18;;;;;;;3.40;3.13;;;;;;;20.84;68.61;93637.88;513927;28;790;-44
2023/08/18 01:06:33;;;;;;;3.33;3.03;;;;;;;20.83;68.75;93636.44;511661;29;1500;-45
2023/08/18 01:06:49;;;;;;;3.40;3.10;;;;;;;20.81;68.77;93636.28;511894;29;1644;-45
2023/08/18 01:07:04;;;;;;;3.25;2.97;;;;;;;20.81;68.85;93636.28;512027;29;872;-45
2023/08/18 01:07:20;;;;;;;3.13;2.77;;;;;;;20.79;68.89;93633.38;512070;28;860;-44
2023/08/18 01:07:35;;;;;;;3.38;2.95;;;;;;;20.78;68.95;93631.19;512024;29;844;-46
2023/08/18 01:07:50;;;;;;;3.23;2.93;;;;;;;20.78;69.16;93631.19;512009;28;789;-46
2023/08/18 01:08:06;;;;;;;3.00;2.70;;;;;;;20.75;69.25;93629.59;512046;29;881;-45
2023/08/18 01:08:21;;;;;;;2.80;2.60;;;;;;;20.76;69.22;93634.63;512023;28;880;-46
2023/08/18 01:08:37;;;;;;;3.40;2.80;;;;;;;20.74;69.23;93626.06;512053;28;987;-45
2023/08/18 01:08:52;;;;;;;3.87;3.10;;;;;;;20.74;69.19;93637.31;512016;28;817;-46
2023/08/18 01:09:08;;;;;;;3.50;3.20;;;;;;;20.74;69.25;93642.91;511994;28;825;-45
2023/08/18 01:09:24;;;;;;;3.17;2.90;;;;;;;20.74;69.24;93630.94;512138;29;786;-46
2023/08/18 01:09:39;;;;;;;2.80;2.60;;;;;;;20.73;69.20;93632.28;511945;28;898;-45
2023/08/18 01:09:55;;;;;;;3.00;2.70;;;;;;;20.72;69.19;93630.84;511981;28;879;-46
2023/08/18 01:10:10;;;;;;;3.40;3.07;;;;;;;20.72;69.27;93628.75;511868;29;825;-45
2023/08/18 01:10:26;;;;;;;3.47;3.10;;;;;;;20.71;69.25;93626.56;511900;29;1214;-46
2023/08/18 01:11:16;;;;;;;3.22;2.92;;;;;;;20.69;69.29;93629.97;511934;28;949;-45
2023/08/18 01:11:48;;;;;;;3.30;2.97;;;;;;;20.70;69.39;93627.91;511566;28;910;-46
2023/08/18 01:12:04;;;;;;;3.10;2.80;;;;;;;20.70;69.32;93630.72;510731;28;957;-45
2023/08/18 01:12:51;;;;;;;3.25;2.95;;;;;;;20.70;69.41;93622.31;509778;29;832;-45
2023/08/18 01:13:15;;;;;;;3.33;3.05;;;;;;;20.70;69.38;93627.91;509676;29;1086;-46
2023/08/18 01:13:42;;;;;;;3.37;3.10;;;;;;;20.69;69.48;93629.97;509661;29;1123;-46
2023/08/18 01:14:11;;;;;;;3.40;3.10;;;;;;;20.67;69.44;93620.72;506564;29;1177;-45
2023/08/18 01:14:46;;;;;;;3.10;2.90;;;;;;;20.66;69.63;93625.56;505579;29;868;-46
2023/08/18 01:15:10;;;;;;;2.95;2.72;;;;;;;20.65;69.53;93626.94;507019;29;1267;-45
2023/08/18 01:15:34;;;;;;;3.50;3.20;;;;;;;20.66;69.58;93627.69;509860;29;968;-46
2023/08/18 01:15:52;;;;;;;3.50;3.20;;;;;;;20.65;69.60;93631.81;509839;29;1918;-45
2023/08/18 01:16:13;;;;;;;4.65;3.38;;;;;;;20.64;69.60;93631.06;509830;29;869;-46
2023/08/18 01:16:29;;;;;;;3.50;2.95;;;;;;;20.64;69.42;93635.97;509844;29;874;-45
2023/08/18 01:16:49;;;;;;;3.63;3.10;;;;;;;20.62;69.65;93630.94;509850;29;848;-46
2023/08/18 01:17:14;;;;;;;3.63;3.22;;;;;;;20.61;69.57;93635.13;509971;29;892;-45
2023/08/18 01:17:35;;;;;;;4.22;3.22;;;;;;;20.53;69.51;93629.00;509758;29;1078;-47
2023/08/18 01:17:53;;;;;;;3.33;2.95;;;;;;;20.60;69.46;93635.72;507876;29;886;-45
2023/08/18 01:18:10;;;;;;;3.35;2.97;;;;;;;20.59;69.61;93629.38;507997;29;786;-45
2023/08/18 01:18:26;;;;;;;4.03;3.15;;;;;;;20.58;69.76;93630.72;509274;29;900;-45
2023/08/18 01:18:41;;;;;;;3.78;3.08;;;;;;;20.55;69.82;93620.00;507956;29;850;-47
2023/08/18 01:18:58;;;;;;;3.63;3.13;;;;;;;20.57;69.76;93626.47;508739;29;857;-44
2023/08/18 01:19:14;;;;;;;3.70;3.30;;;;;;;20.57;69.68;93629.25;509907;29;982;-45
2023/08/18 01:19:30;;;;;;;3.25;2.95;;;;;;;20.55;69.69;93626.34;509797;29;837;-46